Portada
METAR-TAF:

METAR-TAF

Aeroports :

Taree, Austràlia

latitud: 31-53-19S, longitud: 152-30-50E, altitud: 12 m

Observació

L'informe es va fer fa 44 minuts, a les 10:00 UTC
Vent calma
Temperatura 13°C
Humitat 77%
Pressió 1024 hPa
Visibilitat 10 km o més
Núvols disperses a una alçada de 3500 ft
Cel cobert a una alçada de 6500 ft
Cel cobert a una alçada de 8300 ft

METAR: YTRE 251000Z AUTO 00000KT 9999 // SCT035 OVC065 OVC083 13/09 Q1024

Hora: 20:44 (10:44 UTC)

Pronòstic

L'informe es va fer fa 3 hores i 48 minuts, a les 06:56 UTC
Pronòstic vàlid del 25 a les 08 UTC al 25 a les 20 UTC
Vent 3 kt amb direcció variable
Visibilitat 10 km o més
Núvols disperses a una alçada de 2500 ft
Cel ennuvolat a una alçada de 4000 ft
xàfecs de pluja

TAF: YTRE 250656Z 2508/2520 VRB03KT 9999 -SHRA SCT025 BKN040

Observacions i pronòstics meteorològics de més de 4000 aeroports (METAR i TAF).

Les estacions disponibles són els punts grocs i vermells al mapa.

Posi el ratolí al punt desitjat per veure el nom de l'estació.

Feu clic per veure les observacions i els pronòstics meteorològics.

Per canviar el mapa: feu clic els botons verds amb una creu de color negre per apropar; al botó verd amb un guió per allunyar la imatge; o en les fletxes verdes per a mapes adjacents.


METAR-TAF: